Time;durP1;ratioP1;P1;durP2;ratioP2;P2;SDS_P1;SDS_P2;PMS_P1;PMS_P2;Temp;Humidity;BMP_temperature;BMP_pressure;BME280_temperature;BME280_humidity;BME280_pressure;Samples;Min_cycle;Max_cycle;Signal;HPM_P1;HPM_P2
2023/06/11 00:00:39;;;;;;;4.43;2.85;;;;;;;23.94;64.36;98314.50;2068535;28;20045;-84
2023/06/11 00:01:41;;;;;;;3.88;2.45;;;;;;;23.94;63.85;98314.50;2065558;28;20085;-84
2023/06/11 00:02:43;;;;;;;2.13;1.92;;;;;;;23.93;63.78;98312.84;2066455;28;20054;-83
2023/06/11 00:03:46;;;;;;;4.22;2.13;;;;;;;23.90;64.15;98312.50;2068076;28;20053;-83
2023/06/11 00:04:49;;;;;;;4.00;2.47;;;;;;;23.94;64.48;98324.50;2069292;28;20681;-83
2023/06/11 00:05:51;;;;;;;3.95;2.25;;;;;;;23.90;64.04;98316.03;2063133;28;20684;-84
2023/06/11 00:06:54;;;;;;;3.30;2.53;;;;;;;23.92;64.28;98310.38;2073318;28;20046;-83
2023/06/11 00:07:55;;;;;;;3.75;2.90;;;;;;;23.93;64.27;98320.13;2073587;28;20056;-83
2023/06/11 00:08:57;;;;;;;3.00;2.28;;;;;;;23.96;63.93;98322.34;2076953;28;20048;-84
2023/06/11 00:09:58;;;;;;;6.70;3.53;;;;;;;23.93;64.45;98318.28;2071401;28;20548;-83
2023/06/11 00:11:00;;;;;;;4.32;2.63;;;;;;;23.96;64.06;98316.94;2072835;28;20050;-83
2023/06/11 00:12:01;;;;;;;5.10;2.55;;;;;;;23.93;64.01;98315.56;2057218;28;20124;-83
2023/06/11 00:13:03;;;;;;;5.90;2.30;;;;;;;23.93;64.26;98318.28;2067221;28;20641;-83
2023/06/11 00:14:03;;;;;;;3.65;2.47;;;;;;;23.95;64.15;98318.00;2066494;28;20033;-83
2023/06/11 00:15:06;;;;;;;3.42;2.28;;;;;;;23.94;64.30;98311.78;2053917;28;20072;-83
2023/06/11 00:16:08;;;;;;;4.50;2.13;;;;;;;23.95;64.07;98316.13;2065110;28;20038;-84
2023/06/11 00:17:12;;;;;;;4.30;2.25;;;;;;;23.94;64.10;98313.69;2067702;28;20046;-83
2023/06/11 00:18:14;;;;;;;8.13;2.72;;;;;;;23.93;64.14;98306.59;2066411;28;20096;-84
2023/06/11 00:19:17;;;;;;;2.70;2.20;;;;;;;23.92;64.46;98310.38;2057394;28;20042;-84
2023/06/11 00:20:18;;;;;;;3.60;2.60;;;;;;;23.92;64.37;98313.91;2065366;28;20612;-84
2023/06/11 00:21:20;;;;;;;5.15;2.05;;;;;;;23.94;64.08;98317.19;2058493;28;20077;-84
2023/06/11 00:22:27;;;;;;;4.78;2.50;;;;;;;23.94;64.50;98309.06;2074490;28;20046;-83
2023/06/11 00:23:28;;;;;;;3.70;2.35;;;;;;;23.92;64.60;98321.22;2066897;28;20049;-84
2023/06/11 00:24:29;;;;;;;3.00;2.00;;;;;;;23.92;64.09;98315.81;2074877;28;20772;-82
2023/06/11 00:25:32;;;;;;;7.18;2.20;;;;;;;23.93;64.10;98320.97;2066208;28;20085;-83
2023/06/11 00:26:35;;;;;;;2.88;2.05;;;;;;;23.91;64.16;98319.59;2060994;28;20042;-83
2023/06/11 00:27:37;;;;;;;4.25;2.33;;;;;;;23.90;64.30;98304.38;2065654;28;20062;-83
2023/06/11 00:28:37;;;;;;;4.20;2.20;;;;;;;23.90;64.47;98313.31;2064695;28;20053;-83
2023/06/11 00:29:39;;;;;;;2.35;2.00;;;;;;;23.94;64.64;98316.38;2065942;28;20115;-84
2023/06/11 00:30:40;;;;;;;4.03;2.50;;;;;;;23.94;64.17;98321.81;2073182;28;20062;-83
2023/06/11 00:31:43;;;;;;;2.90;2.53;;;;;;;23.94;64.75;98313.69;2073087;28;20079;-83
2023/06/11 00:32:45;;;;;;;3.63;2.10;;;;;;;23.93;64.34;98310.16;2073238;28;20050;-83
2023/06/11 00:33:49;;;;;;;4.70;2.20;;;;;;;23.95;64.44;98318.81;2074063;28;20128;-84
2023/06/11 00:34:50;;;;;;;3.78;2.50;;;;;;;23.95;64.28;98321.53;2072264;28;20053;-83
2023/06/11 00:35:52;;;;;;;3.00;2.15;;;;;;;23.93;64.82;98312.00;2069669;28;20049;-83
2023/06/11 00:36:52;;;;;;;2.83;2.08;;;;;;;23.92;64.26;98311.19;2065418;28;20857;-84
2023/06/11 00:37:55;;;;;;;5.65;1.77;;;;;;;23.95;64.40;98318.81;2066657;28;20057;-83
2023/06/11 00:38:56;;;;;;;3.03;2.28;;;;;;;23.92;64.27;98315.81;2070004;28;20529;-83
2023/06/11 00:39:58;;;;;;;2.83;1.88;;;;;;;23.95;64.22;98323.44;2060545;28;20042;-83
2023/06/11 00:40:58;;;;;;;2.05;1.80;;;;;;;23.94;64.03;98325.31;2069301;28;20104;-83
2023/06/11 00:42:00;;;;;;;2.90;1.92;;;;;;;23.94;64.63;98319.91;2074217;28;20115;-83
2023/06/11 00:43:04;;;;;;;4.70;1.90;;;;;;;23.95;64.78;98318.00;2064413;28;20716;-84
2023/06/11 00:44:07;;;;;;;3.60;2.10;;;;;;;23.91;64.42;98314.97;2058900;28;20072;-83
2023/06/11 00:45:09;;;;;;;1.90;1.70;;;;;;;23.92;64.37;98316.63;2074503;28;20927;-83
2023/06/11 00:46:11;;;;;;;2.97;1.70;;;;;;;23.95;63.96;98320.72;2071121;28;20127;-83
2023/06/11 00:47:14;;;;;;;6.55;2.60;;;;;;;23.91;64.17;98314.16;2066974;28;20038;-83
2023/06/11 00:48:19;;;;;;;4.30;2.20;;;;;;;23.94;64.01;98316.38;2075951;28;20580;-83
2023/06/11 00:49:21;;;;;;;3.05;2.50;;;;;;;23.92;64.62;98315.81;2074924;28;20046;-84
2023/06/11 00:50:23;;;;;;;3.05;2.33;;;;;;;23.90;64.57;98313.31;2065390;28;20087;-83
2023/06/11 00:51:25;;;;;;;2.85;2.08;;;;;;;23.95;64.70;98326.13;2057238;28;20049;-83
2023/06/11 00:52:34;;;;;;;4.63;2.45;;;;;;;23.94;64.02;98319.09;2065575;28;20131;-84
2023/06/11 00:53:35;;;;;;;5.13;2.22;;;;;;;23.94;64.65;98319.09;2072402;28;20049;-83
2023/06/11 00:54:37;;;;;;;2.92;2.55;;;;;;;23.95;64.70;98321.53;2066215;28;20137;-83
2023/06/11 00:55:38;;;;;;;2.95;2.22;;;;;;;23.97;63.94;98318.59;2068517;28;20174;-83
2023/06/11 00:56:41;;;;;;;5.35;2.90;;;;;;;23.97;64.44;98315.88;2070017;28;20070;-84
2023/06/11 00:57:42;;;;;;;2.35;1.83;;;;;;;23.95;64.36;98318.81;2067224;28;20118;-82
2023/06/11 00:58:45;;;;;;;2.90;2.55;;;;;;;23.96;64.79;98320.50;2067169;28;20072;-83
2023/06/11 00:59:48;;;;;;;3.40;2.08;;;;;;;23.95;64.54;98320.72;2067398;28;20502;-83
2023/06/11 01:00:52;;;;;;;2.78;1.70;;;;;;;23.95;65.04;98320.72;2068297;28;20122;-84
2023/06/11 01:02:05;;;;;;;2.58;2.38;;;;;;;23.95;64.71;98326.13;2067863;28;20054;-83
2023/06/11 01:03:17;;;;;;;4.65;2.08;;;;;;;23.92;64.33;98319.31;2056363;28;20042;-83
2023/06/11 01:04:20;;;;;;;2.88;1.92;;;;;;;23.93;64.82;98314.72;2066278;28;20046;-83
2023/06/11 01:05:23;;;;;;;4.60;2.33;;;;;;;23.92;64.42;98315.81;2067324;28;20054;-83
2023/06/11 01:06:33;;;;;;;2.45;1.75;;;;;;;23.88;64.48;98303.81;2067957;28;20050;-84
2023/06/11 01:07:36;;;;;;;2.78;2.00;;;;;;;23.93;64.78;98314.72;2074993;28;20045;-83
2023/06/11 01:08:40;;;;;;;3.10;2.10;;;;;;;23.92;64.52;98311.19;2066564;28;20480;-83
2023/06/11 01:09:42;;;;;;;3.15;2.10;;;;;;;23.92;64.55;98313.91;2066911;28;20057;-83
2023/06/11 01:10:44;;;;;;;3.67;2.03;;;;;;;23.94;64.48;98314.50;2068521;28;20046;-83
2023/06/11 01:11:48;;;;;;;3.80;2.40;;;;;;;23.93;64.96;98312.84;2057519;28;20050;-83
2023/06/11 01:12:50;;;;;;;5.22;2.35;;;;;;;23.94;64.95;98311.78;2069479;28;20049;-83
2023/06/11 01:13:51;;;;;;;2.22;2.03;;;;;;;23.90;64.84;98301.66;2065840;28;20051;-83
2023/06/11 01:14:53;;;;;;;2.85;2.25;;;;;;;23.94;64.66;98310.97;2075538;28;20050;-83
2023/06/11 01:16:01;;;;;;;4.28;2.03;;;;;;;23.97;64.53;98310.47;2076017;28;20106;-82
2023/06/11 01:17:10;;;;;;;5.15;2.05;;;;;;;23.93;64.78;98301.19;2076849;28;20068;-83
2023/06/11 01:18:18;;;;;;;4.22;2.45;;;;;;;23.94;65.19;98309.06;2075115;28;20049;-83
2023/06/11 01:19:43;;;;;;;3.42;1.88;;;;;;;23.89;64.65;98308.16;2070494;28;20521;-83
2023/06/11 01:20:50;;;;;;;2.03;1.67;;;;;;;23.91;64.43;98309.56;2076379;28;20781;-84
2023/06/11 01:21:59;;;;;;;3.53;1.40;;;;;;;23.94;64.23;98308.25;2073797;28;20054;-84
2023/06/11 01:23:31;;;;;;;1.90;1.70;;;;;;;23.90;64.34;98312.50;2067971;28;20513;-83
2023/06/11 01:24:45;;;;;;;3.08;2.35;;;;;;;23.84;65.37;98304.28;2049200;28;20045;-84
2023/06/11 01:25:55;;;;;;;3.33;2.15;;;;;;;23.89;65.25;98306.28;2063704;28;20042;-84
2023/06/11 01:27:08;;;;;;;4.30;2.03;;;;;;;23.91;64.14;98308.75;2076831;28;20052;-83
2023/06/11 01:28:16;;;;;;;4.47;2.33;;;;;;;23.94;64.89;98308.25;2076048;28;20092;-82
2023/06/11 01:29:37;;;;;;;3.25;2.38;;;;;;;23.94;64.40;98309.06;2075429;28;20053;-83
2023/06/11 01:30:45;;;;;;;2.75;1.60;;;;;;;23.91;64.70;98303.34;2072745;28;20091;-83
2023/06/11 01:31:46;;;;;;;2.85;1.80;;;;;;;23.89;64.96;98305.47;2062914;28;20046;-83
2023/06/11 01:32:53;;;;;;;2.45;2.13;;;;;;;23.94;64.50;98313.69;2066339;28;20515;-84
2023/06/11 01:33:53;;;;;;;1.70;1.42;;;;;;;23.94;64.78;98314.50;2069662;28;20068;-83
2023/06/11 01:35:01;;;;;;;3.88;1.85;;;;;;;23.94;64.80;98309.06;2066461;28;20060;-83
2023/06/11 01:36:05;;;;;;;2.30;1.98;;;;;;;23.92;64.61;98307.69;2055292;28;20521;-84
2023/06/11 01:37:09;;;;;;;2.13;1.77;;;;;;;23.93;64.37;98306.59;2065596;28;20053;-83
2023/06/11 01:38:09;;;;;;;4.38;2.08;;;;;;;23.94;64.33;98313.69;2060658;28;20148;-83
2023/06/11 01:39:11;;;;;;;2.58;1.60;;;;;;;23.94;64.48;98308.25;2075459;28;20046;-82
2023/06/11 01:40:13;;;;;;;2.33;1.80;;;;;;;23.93;64.38;98307.44;2071753;28;20912;-83
2023/06/11 01:41:15;;;;;;;2.03;1.73;;;;;;;23.96;64.45;98303.38;2068180;28;20057;-83
2023/06/11 01:42:16;;;;;;;2.00;1.60;;;;;;;23.92;64.50;98299.53;2060226;28;20753;-83
2023/06/11 01:43:19;;;;;;;3.53;1.85;;;;;;;23.94;64.21;98297.41;2066757;28;20050;-83
2023/06/11 01:44:20;;;;;;;3.65;2.00;;;;;;;23.95;64.38;98304.47;2060276;28;20050;-83
2023/06/11 01:45:23;;;;;;;7.30;2.60;;;;;;;23.97;64.41;98305.06;2066550;28;20100;-83
2023/06/11 01:46:33;;;;;;;1.95;1.85;;;;;;;23.99;64.22;98300.22;2074944;28;20057;-83
2023/06/11 01:47:34;;;;;;;3.72;1.88;;;;;;;23.95;64.44;98299.06;2073306;28;20068;-85
2023/06/11 01:48:36;;;;;;;3.17;1.50;;;;;;;23.97;64.37;98302.34;2066636;28;20140;-83
2023/06/11 01:49:38;;;;;;;2.85;1.95;;;;;;;23.96;64.32;98304.22;2055378;28;20058;-83
2023/06/11 01:50:39;;;;;;;3.05;2.72;;;;;;;23.96;64.42;98303.38;2068424;28;20567;-83
2023/06/11 01:51:41;;;;;;;1.98;1.77;;;;;;;23.98;64.34;98298.56;2071881;28;20140;-83
2023/06/11 01:52:41;;;;;;;4.72;2.55;;;;;;;23.98;64.37;98295.84;2072479;28;20137;-83
2023/06/11 01:53:44;;;;;;;3.92;2.00;;;;;;;23.94;64.49;98297.41;2074303;28;20041;-83
2023/06/11 01:54:45;;;;;;;2.70;1.75;;;;;;;23.98;63.88;98303.97;2071358;28;20069;-83
2023/06/11 01:55:47;;;;;;;3.38;1.90;;;;;;;23.98;64.40;98298.56;2066684;28;20129;-83
2023/06/11 01:56:48;;;;;;;3.83;2.67;;;;;;;23.97;64.13;98296.94;2057392;28;20049;-83
2023/06/11 01:57:50;;;;;;;3.17;2.40;;;;;;;23.96;64.81;98296.13;2061410;28;20092;-83
2023/06/11 01:58:52;;;;;;;2.38;2.17;;;;;;;23.98;64.26;98295.84;2067325;28;20077;-83
2023/06/11 01:59:54;;;;;;;2.05;1.73;;;;;;;23.98;63.93;98295.84;2066245;28;20050;-83
2023/06/11 02:00:55;;;;;;;3.17;2.15;;;;;;;23.95;64.64;98293.63;2078037;28;20146;-84
2023/06/11 02:01:56;;;;;;;2.28;1.98;;;;;;;23.92;64.46;98291.41;2074464;28;20056;-83
2023/06/11 02:03:01;;;;;;;3.50;2.08;;;;;;;23.92;64.81;98289.53;2074947;28;20079;-83
2023/06/11 02:04:02;;;;;;;3.78;2.03;;;;;;;23.93;64.76;98293.06;2072356;28;20049;-84
2023/06/11 02:05:04;;;;;;;3.30;1.88;;;;;;;23.94;64.59;98297.41;2069998;28;20038;-84
2023/06/11 02:06:06;;;;;;;4.22;1.75;;;;;;;23.94;64.20;98292.81;2068806;28;20073;-83
2023/06/11 02:07:08;;;;;;;1.58;1.27;;;;;;;23.96;64.12;98298.81;2056046;28;20081;-83
2023/06/11 02:08:10;;;;;;;3.35;1.98;;;;;;;23.97;64.12;98297.75;2072643;28;20653;-84
2023/06/11 02:09:11;;;;;;;2.78;1.77;;;;;;;23.94;64.11;98297.41;2075316;28;20042;-82
2023/06/11 02:10:13;;;;;;;2.70;1.63;;;;;;;23.96;64.24;98298.81;2074304;28;20698;-83
2023/06/11 02:11:13;;;;;;;2.70;1.67;;;;;;;23.97;64.52;98296.94;2065674;28;20103;-83
2023/06/11 02:12:15;;;;;;;1.83;1.70;;;;;;;23.95;64.18;98299.06;2069118;28;20061;-83
2023/06/11 02:13:16;;;;;;;3.13;1.80;;;;;;;23.95;64.39;98297.16;2058654;28;20053;-83
2023/06/11 02:14:19;;;;;;;2.22;1.60;;;;;;;23.95;64.18;98299.06;2069025;28;20056;-85
2023/06/11 02:15:21;;;;;;;2.03;1.75;;;;;;;23.93;64.33;98295.75;2059796;28;20056;-83
2023/06/11 02:16:23;;;;;;;2.80;1.92;;;;;;;23.93;64.06;98293.06;2056366;28;20111;-84
2023/06/11 02:17:37;;;;;;;2.22;1.75;;;;;;;23.94;64.07;98297.41;2063193;28;20051;-84
2023/06/11 02:18:39;;;;;;;3.28;2.03;;;;;;;23.90;64.28;98290.84;2076640;28;20531;-83
2023/06/11 02:19:40;;;;;;;3.72;1.65;;;;;;;23.91;64.62;98287.09;2073027;28;20136;-84
2023/06/11 02:20:42;;;;;;;1.67;1.42;;;;;;;23.92;64.58;98289.53;2073239;28;20057;-84
2023/06/11 02:21:43;;;;;;;4.95;1.65;;;;;;;23.96;64.30;98292.56;2075004;28;20555;-84
2023/06/11 02:22:45;;;;;;;2.92;2.50;;;;;;;23.95;64.22;98296.34;2064894;28;20497;-83
2023/06/11 02:23:45;;;;;;;5.25;2.60;;;;;;;23.94;64.51;98298.25;2058796;28;20053;-84
2023/06/11 02:24:51;;;;;;;3.75;1.60;;;;;;;23.95;64.32;98293.63;2066521;28;20125;-83
2023/06/11 02:25:52;;;;;;;2.33;1.75;;;;;;;23.92;64.20;98283.28;2073627;28;20456;-83
2023/06/11 02:26:53;;;;;;;2.90;2.10;;;;;;;23.94;64.53;98300.13;2073107;28;20073;-83
2023/06/11 02:28:00;;;;;;;3.78;1.70;;;;;;;23.93;64.31;98293.06;2062642;28;20092;-84
2023/06/11 02:29:07;;;;;;;3.20;1.80;;;;;;;23.91;64.39;98292.50;2073865;28;20041;-83
2023/06/11 02:30:11;;;;;;;2.38;1.65;;;;;;;23.95;64.09;98299.06;2065479;28;20041;-84
2023/06/11 02:31:13;;;;;;;5.68;1.98;;;;;;;23.95;64.67;98299.88;2066561;28;20057;-83
2023/06/11 02:32:14;;;;;;;2.40;1.83;;;;;;;23.94;64.39;98297.41;2065062;28;20093;-84
2023/06/11 02:33:16;;;;;;;4.22;2.17;;;;;;;23.91;64.27;98289.78;2078670;28;20479;-83
2023/06/11 02:34:16;;;;;;;3.28;2.05;;;;;;;23.93;64.45;98299.31;2062702;28;20532;-83
2023/06/11 02:35:19;;;;;;;2.50;2.13;;;;;;;23.90;64.64;98293.53;2057545;28;20132;-84
2023/06/11 02:36:20;;;;;;;1.90;1.70;;;;;;;23.93;64.28;98293.06;2054868;28;20069;-83
2023/06/11 02:37:20;;;;;;;3.40;2.03;;;;;;;23.92;64.19;98292.25;2056250;28;20080;-84
2023/06/11 02:38:22;;;;;;;5.53;1.88;;;;;;;23.89;64.15;98289.22;2056336;28;20529;-84
2023/06/11 02:39:23;;;;;;;3.65;1.88;;;;;;;23.91;64.24;98298.72;2066804;28;20125;-84
2023/06/11 02:40:36;;;;;;;1.50;1.40;;;;;;;23.90;64.85;98302.50;2068895;28;20069;-84
2023/06/11 02:41:36;;;;;;;1.77;1.55;;;;;;;23.92;64.39;98303.06;2067507;28;20048;-84
2023/06/11 02:42:38;;;;;;;2.15;1.30;;;;;;;23.88;65.05;98299.22;2063650;28;20085;-83
2023/06/11 02:43:39;;;;;;;3.10;1.63;;;;;;;23.92;64.73;98299.53;2067060;28;20042;-84
2023/06/11 02:44:41;;;;;;;3.20;2.35;;;;;;;23.91;64.75;98295.22;2067461;28;20049;-83
2023/06/11 02:45:43;;;;;;;2.55;1.58;;;;;;;23.92;64.47;98299.53;2066150;28;20046;-84
2023/06/11 02:46:44;;;;;;;1.52;1.42;;;;;;;23.93;64.62;98301.19;2057944;28;20095;-83
2023/06/11 02:47:45;;;;;;;4.03;1.63;;;;;;;23.94;64.35;98303.66;2056844;28;20052;-84
2023/06/11 02:48:47;;;;;;;2.67;1.80;;;;;;;23.92;64.45;98300.38;2069300;28;20129;-84
2023/06/11 02:49:48;;;;;;;1.40;1.30;;;;;;;23.92;64.60;98305.78;2067660;28;20481;-84
2023/06/11 02:50:50;;;;;;;2.67;2.13;;;;;;;23.91;64.81;98295.22;2068070;28;20061;-83
2023/06/11 02:51:50;;;;;;;3.42;1.90;;;;;;;23.94;64.56;98300.13;2069347;28;20442;-83
2023/06/11 02:52:52;;;;;;;3.00;1.80;;;;;;;23.92;64.44;98294.13;2068911;28;20053;-83
2023/06/11 02:53:53;;;;;;;3.55;2.30;;;;;;;23.92;64.34;98299.53;2066982;28;20456;-83
2023/06/11 02:54:55;;;;;;;2.65;1.92;;;;;;;23.91;64.47;98298.72;2057788;28;20091;-84
2023/06/11 02:55:56;;;;;;;3.83;1.80;;;;;;;23.94;64.52;98302.84;2058166;28;20168;-84
2023/06/11 02:57:00;;;;;;;1.90;1.50;;;;;;;23.89;65.09;98300.84;2067809;28;20046;-83
2023/06/11 02:58:01;;;;;;;2.58;2.10;;;;;;;23.91;64.75;98301.44;2067090;28;20065;-84
2023/06/11 02:59:03;;;;;;;2.20;1.98;;;;;;;23.90;64.75;98301.66;2051093;28;20039;-83
2023/06/11 03:00:05;;;;;;;3.75;1.70;;;;;;;23.91;64.59;98297.91;2070826;28;20045;-83
2023/06/11 03:01:08;;;;;;;2.08;1.73;;;;;;;23.89;64.96;98300.03;2067830;28;20048;-83
2023/06/11 03:02:09;;;;;;;2.00;1.77;;;;;;;23.91;64.51;98300.63;2057318;28;20041;-83
2023/06/11 03:03:11;;;;;;;3.50;2.08;;;;;;;23.92;64.84;98304.97;2067816;28;20050;-83
2023/06/11 03:04:12;;;;;;;1.60;1.40;;;;;;;23.90;64.79;98299.78;2054034;28;20176;-83
2023/06/11 03:05:14;;;;;;;3.03;1.65;;;;;;;23.90;64.50;98296.25;2056295;28;20100;-82
2023/06/11 03:06:15;;;;;;;3.75;1.55;;;;;;;23.90;64.61;98291.66;2053298;28;20125;-83
2023/06/11 03:07:16;;;;;;;2.40;1.67;;;;;;;23.90;64.71;98291.66;2049743;28;20065;-84
2023/06/11 03:08:17;;;;;;;2.42;2.03;;;;;;;23.89;64.88;98291.91;2062547;28;20080;-83
2023/06/11 03:09:21;;;;;;;2.30;1.65;;;;;;;23.89;64.78;98298.16;2068986;28;20057;-83
2023/06/11 03:10:21;;;;;;;2.13;1.80;;;;;;;23.89;64.31;98302.75;2067158;28;20477;-83
2023/06/11 03:11:25;;;;;;;5.47;1.90;;;;;;;23.85;64.56;98288.88;2060190;28;20049;-83
2023/06/11 03:12:32;;;;;;;2.97;2.00;;;;;;;23.90;64.42;98297.06;2055619;28;20042;-84
2023/06/11 03:13:35;;;;;;;3.70;1.73;;;;;;;23.86;64.27;98288.63;2076136;28;20164;-84
2023/06/11 03:14:35;;;;;;;5.72;1.58;;;;;;;23.89;64.77;98295.44;2079349;28;20045;-83
2023/06/11 03:15:37;;;;;;;2.10;1.40;;;;;;;23.91;65.04;98306.03;2080214;28;20072;-83
2023/06/11 03:16:39;;;;;;;3.50;2.42;;;;;;;23.90;65.00;98302.50;2068581;28;20068;-84
2023/06/11 03:17:41;;;;;;;5.35;2.35;;;;;;;23.89;65.47;98300.03;2071500;28;20054;-83
2023/06/11 03:18:44;;;;;;;1.73;1.63;;;;;;;23.90;65.04;98299.78;2060215;28;20054;-84
2023/06/11 03:19:46;;;;;;;1.95;1.75;;;;;;;23.88;64.88;98295.72;2078445;28;20570;-83
2023/06/11 03:20:47;;;;;;;4.85;1.50;;;;;;;23.88;64.35;98290.28;2076175;28;20129;-84
2023/06/11 03:21:49;;;;;;;2.30;2.05;;;;;;;23.88;65.04;98298.41;2074872;28;20056;-83
2023/06/11 03:22:50;;;;;;;2.78;1.65;;;;;;;23.89;64.71;98291.91;2066985;28;20126;-83
2023/06/11 03:23:52;;;;;;;3.05;1.70;;;;;;;23.86;64.90;98294.03;2071841;28;21190;-84
2023/06/11 03:24:53;;;;;;;2.15;1.77;;;;;;;23.88;64.50;98298.41;2059934;28;20050;-84
2023/06/11 03:25:54;;;;;;;2.00;1.60;;;;;;;23.86;64.93;98294.03;2061395;28;20556;-84
2023/06/11 03:26:55;;;;;;;2.78;1.88;;;;;;;23.85;65.26;98289.72;2075815;28;20049;-83
2023/06/11 03:27:57;;;;;;;4.60;2.53;;;;;;;23.88;65.04;98295.72;2067887;28;20046;-83
2023/06/11 03:28:58;;;;;;;2.67;1.98;;;;;;;23.88;64.79;98301.94;2076213;28;20083;-83
2023/06/11 03:29:59;;;;;;;1.83;1.58;;;;;;;23.90;64.71;98307.09;2076458;28;20045;-84
2023/06/11 03:31:00;;;;;;;3.13;2.15;;;;;;;23.88;64.42;98309.25;2066318;28;20168;-83
2023/06/11 03:32:04;;;;;;;3.08;1.55;;;;;;;23.88;64.54;98304.66;2076586;28;20112;-83
2023/06/11 03:33:05;;;;;;;1.75;1.40;;;;;;;23.86;64.68;98304.88;2076892;28;20429;-84
2023/06/11 03:34:07;;;;;;;3.75;1.77;;;;;;;23.88;64.42;98298.41;2075537;28;20136;-83
2023/06/11 03:35:08;;;;;;;2.70;1.60;;;;;;;23.89;64.69;98306.28;2075661;28;20556;-84
2023/06/11 03:36:10;;;;;;;5.10;2.08;;;;;;;23.91;64.64;98303.34;2060198;28;20042;-83
2023/06/11 03:37:11;;;;;;;1.70;1.58;;;;;;;23.89;64.79;98300.03;2073573;28;20072;-83
2023/06/11 03:38:13;;;;;;;3.45;2.25;;;;;;;23.83;64.67;98294.53;2078831;28;20057;-85
2023/06/11 03:39:16;;;;;;;2.65;1.50;;;;;;;23.89;64.66;98305.47;2061040;28;20076;-84
2023/06/11 03:40:18;;;;;;;3.22;1.55;;;;;;;23.88;64.75;98304.66;2067412;28;20108;-84
2023/06/11 03:41:19;;;;;;;3.33;1.65;;;;;;;23.88;64.83;98303.81;2070452;28;20060;-83
2023/06/11 03:42:21;;;;;;;2.85;1.50;;;;;;;23.88;64.93;98301.94;2068334;28;20539;-83
2023/06/11 03:43:22;;;;;;;1.98;1.50;;;;;;;23.83;65.00;98302.66;2062886;28;20044;-84
2023/06/11 03:44:41;;;;;;;2.70;2.20;;;;;;;23.84;64.54;98307.00;2075561;28;20132;-83
2023/06/11 03:45:42;;;;;;;3.50;1.70;;;;;;;23.86;65.03;98309.47;2065276;28;20046;-84
2023/06/11 03:46:44;;;;;;;1.63;1.52;;;;;;;23.86;64.73;98302.16;2073024;28;20045;-82
2023/06/11 03:47:52;;;;;;;2.53;1.65;;;;;;;23.86;65.13;98307.59;2063390;28;20050;-84
2023/06/11 03:48:54;;;;;;;2.90;1.58;;;;;;;23.86;64.51;98302.16;2076678;28;20562;-83
2023/06/11 03:49:58;;;;;;;1.73;1.55;;;;;;;23.88;64.63;98309.25;2078566;28;20583;-83
2023/06/11 03:51:00;;;;;;;3.08;2.20;;;;;;;23.85;65.45;98305.13;2076504;28;20083;-83
2023/06/11 03:52:01;;;;;;;2.83;2.00;;;;;;;23.89;64.93;98302.75;2073917;28;20046;-83
2023/06/11 03:53:03;;;;;;;1.75;1.65;;;;;;;23.88;64.62;98309.25;2074053;28;20045;-83
2023/06/11 03:54:04;;;;;;;1.60;1.50;;;;;;;23.86;64.97;98302.16;2064866;28;20053;-84
2023/06/11 03:55:07;;;;;;;1.90;1.67;;;;;;;23.84;65.31;98303.47;2065719;28;20041;-83
2023/06/11 03:56:08;;;;;;;2.47;1.70;;;;;;;23.85;65.50;98314.09;2077793;28;20049;-84
2023/06/11 03:57:10;;;;;;;1.83;1.55;;;;;;;23.82;65.26;98301.03;2063049;28;20060;-83
2023/06/11 03:58:11;;;;;;;1.98;1.50;;;;;;;23.82;65.13;98301.03;2074692;28;20049;-82
2023/06/11 03:59:12;;;;;;;3.10;1.42;;;;;;;23.84;64.60;98304.28;2069004;28;20050;-83
2023/06/11 04:00:14;;;;;;;1.98;1.33;;;;;;;23.89;64.93;98310.88;2064325;28;20713;-83
2023/06/11 04:01:16;;;;;;;2.40;1.55;;;;;;;23.85;64.83;98305.97;2061824;28;20054;-83
2023/06/11 04:02:17;;;;;;;1.58;1.33;;;;;;;23.87;64.92;98305.69;2073899;28;20077;-83
2023/06/11 04:03:21;;;;;;;1.95;1.58;;;;;;;23.83;64.83;98297.25;2066266;28;20046;-83
2023/06/11 04:04:25;;;;;;;2.13;1.33;;;;;;;23.86;64.70;98302.16;2063878;28;20053;-83
2023/06/11 04:05:38;;;;;;;2.90;2.00;;;;;;;23.80;64.61;98295.03;2062490;28;20051;-84
2023/06/11 04:06:40;;;;;;;4.80;2.05;;;;;;;23.80;65.07;98295.03;2062881;28;20045;-83
2023/06/11 04:07:42;;;;;;;4.05;1.50;;;;;;;23.81;64.49;98293.97;2072563;28;20103;-84
2023/06/11 04:08:42;;;;;;;2.45;1.27;;;;;;;23.86;64.64;98295.94;2061078;28;20068;-83
2023/06/11 04:09:44;;;;;;;2.05;1.63;;;;;;;23.82;64.84;98294.78;2063075;28;20044;-83
2023/06/11 04:10:45;;;;;;;2.25;1.58;;;;;;;23.85;64.77;98300.53;2062528;28;20065;-84
2023/06/11 04:11:47;;;;;;;2.45;1.60;;;;;;;23.82;64.69;98295.63;2076733;28;20060;-83
2023/06/11 04:12:48;;;;;;;1.55;1.40;;;;;;;23.86;64.72;98306.78;2074912;28;20109;-84
2023/06/11 04:13:50;;;;;;;1.88;1.67;;;;;;;23.82;64.68;98289.34;2076154;28;20137;-83
2023/06/11 04:14:51;;;;;;;3.58;2.65;;;;;;;23.80;64.74;98297.75;2075311;28;20037;-83
2023/06/11 04:15:53;;;;;;;3.28;1.60;;;;;;;23.83;64.65;98297.25;2067433;28;20104;-83
2023/06/11 04:16:54;;;;;;;4.20;1.92;;;;;;;23.82;65.13;98301.03;2076718;28;20884;-83
2023/06/11 04:17:55;;;;;;;2.95;2.10;;;;;;;23.84;65.01;98296.16;2075098;28;20039;-83
2023/06/11 04:18:58;;;;;;;2.60;1.63;;;;;;;23.85;65.15;98297.81;2072854;28;21211;-83
2023/06/11 04:20:00;;;;;;;2.38;2.17;;;;;;;23.85;64.73;98300.53;2074519;28;20056;-83
2023/06/11 04:21:01;;;;;;;2.35;1.67;;;;;;;23.83;64.71;98294.53;2071144;28;20073;-83
2023/06/11 04:22:03;;;;;;;1.38;1.20;;;;;;;23.89;64.79;98300.03;2074514;28;20065;-83
2023/06/11 04:23:04;;;;;;;1.58;1.30;;;;;;;23.82;64.89;98295.63;2070837;28;20120;-83
2023/06/11 04:24:07;;;;;;;4.05;1.83;;;;;;;23.84;64.61;98292.66;2060462;28;20534;-83
2023/06/11 04:25:08;;;;;;;2.90;2.03;;;;;;;23.80;65.15;98292.31;2073219;28;20134;-83
2023/06/11 04:26:10;;;;;;;2.22;1.75;;;;;;;23.84;65.06;98296.16;2070472;28;20104;-84
2023/06/11 04:27:11;;;;;;;2.15;1.58;;;;;;;23.83;65.36;98291.00;2063875;28;20081;-83
2023/06/11 04:28:16;;;;;;;1.88;1.20;;;;;;;23.81;65.36;98299.38;2074798;28;20539;-83
2023/06/11 04:29:18;;;;;;;4.40;2.15;;;;;;;23.83;65.17;98305.38;2066197;28;20049;-83
2023/06/11 04:30:20;;;;;;;6.43;1.90;;;;;;;23.84;64.82;98300.78;2066351;28;20465;-83
2023/06/11 04:31:26;;;;;;;1.83;1.63;;;;;;;23.83;64.91;98308.09;2070222;28;20050;-83
2023/06/11 04:32:34;;;;;;;1.88;1.45;;;;;;;23.80;64.83;98302.34;2059116;28;20053;-83
2023/06/11 04:33:37;;;;;;;1.33;1.23;;;;;;;23.82;64.81;98305.59;2065444;28;20148;-83
2023/06/11 04:34:40;;;;;;;2.50;1.40;;;;;;;23.79;65.18;98298.81;2079060;28;20103;-83
2023/06/11 04:35:41;;;;;;;1.65;1.55;;;;;;;23.80;64.83;98296.94;2069275;28;20064;-82
2023/06/11 04:36:43;;;;;;;1.45;1.23;;;;;;;23.80;64.51;98292.31;2064704;28;20053;-83
2023/06/11 04:37:45;;;;;;;1.63;1.40;;;;;;;23.83;64.65;98297.25;2066345;28;20054;-83
2023/06/11 04:38:48;;;;;;;3.58;1.33;;;;;;;23.84;65.18;98296.16;2058281;28;20141;-84
2023/06/11 04:39:49;;;;;;;4.32;1.50;;;;;;;23.83;64.83;98297.25;2064912;28;20052;-82
2023/06/11 04:40:51;;;;;;;2.40;1.70;;;;;;;23.79;64.90;98288.00;2072585;28;20077;-83
2023/06/11 04:41:51;;;;;;;1.92;1.83;;;;;;;23.78;65.15;98291.75;2062197;28;20145;-83
2023/06/11 04:42:53;;;;;;;1.77;1.67;;;;;;;23.82;65.60;98294.78;2073371;28;20057;-83
2023/06/11 04:43:54;;;;;;;2.90;1.98;;;;;;;23.79;65.37;98296.13;2070020;28;20080;-83
2023/06/11 04:44:56;;;;;;;2.15;1.40;;;;;;;23.80;64.81;98305.88;2058134;28;20046;-85
2023/06/11 04:45:57;;;;;;;2.08;1.27;;;;;;;23.79;65.67;98297.97;2060528;28;20053;-83
2023/06/11 04:46:59;;;;;;;2.72;1.75;;;;;;;23.78;65.86;98305.28;2063820;28;20053;-83
2023/06/11 04:48:03;;;;;;;1.48;1.20;;;;;;;23.81;65.18;98304.78;2073364;28;20057;-84
2023/06/11 04:49:06;;;;;;;2.97;1.67;;;;;;;23.79;64.92;98301.53;2067139;28;20046;-83
2023/06/11 04:50:09;;;;;;;1.60;1.50;;;;;;;23.80;65.47;98305.06;2060846;28;20120;-83
2023/06/11 04:51:11;;;;;;;3.25;1.50;;;;;;;23.80;65.81;98308.56;2071869;28;20060;-82
2023/06/11 04:52:12;;;;;;;1.48;1.38;;;;;;;23.79;65.77;98311.50;2069662;28;20156;-84
2023/06/11 04:53:22;;;;;;;1.50;1.35;;;;;;;23.78;65.01;98305.28;2065408;28;20049;-84
2023/06/11 04:54:23;;;;;;;1.73;1.63;;;;;;;23.80;64.78;98307.75;2061087;28;20044;-84
2023/06/11 04:55:26;;;;;;;1.42;1.33;;;;;;;23.80;64.78;98303.16;2063058;28;20042;-84
2023/06/11 04:56:41;;;;;;;1.50;1.20;;;;;;;23.81;64.99;98304.78;2061095;28;20532;-83